Airfield :
LOGIN :

Register | Disclaimer

   EN    FR    IT 

 










Legend :    VFR   Marginal VFR   IFR   Intensive IFR   Very Intensive IFR
Visi :
Ceiling :
>= 8 km
>= 3000ft
5 to 8 km
1000 to 3000 ft
1500m to 5 km
500 to 1000 ft
800 to 1500m
200 to 500 ft
< 800m
< 200 ft
Symbols :   Thunderstorms  Fog  Heavy snow  Heavy precipitations  Wind > 20 kt
SIGMETs :     Misc.  Thunderstorms  Icing  Turbulence  Mountain Waves  Volcanic Ashes







- Airport Elevation : 202 ft
- IATA code : LGW
- Download approach charts


EGKK - London Gatwick

CURRENT METAR :
  • 211520Z 16005KT 110V210 CAVOK 23/12 Q1018

EXPIRED METARs :
  • 211450Z VRB03KT CAVOK 23/12 Q1018
  • 211420Z 14006KT 110V190 CAVOK 24/12 Q1018
  • 211350Z 12005KT 070V160 CAVOK 24/13 Q1019
  • 211320Z 19004KT 140V250 9999 FEW048 24/13 Q1019
  • 211250Z 19006KT 160V220 CAVOK 23/12 Q1019
  • 211220Z 18007KT 130V230 CAVOK 24/12 Q1020

TAF AMD TAF EGKK
Valid from the 21 at 15:00 until the 22 at 18:00 UTC


211454Z 2115/2218 15010KT 9999 FEW045
PROB30
TEMPO 2117/2120 7000 SHRA
PROB30
TEMPO 2120/2124 5000 SHRA TSGS
PROB30 2203/2209 6000
BECMG 2206/2209 22010KT
No reported NOTAMs for that airfield.



MET'MAP, your aeronautical weather chart ! - Copyright ORBIFLY December 2007 - Disclaimer

ORBIFLY MET'MAP TEAM :

Programming & Development : Alexandra Zaïnal
Concept & Development : Baudouin d'Aumeries
Co-Development & Prog : Marc-Olivier Méhu
Technical & hardware support : Manuel Goepfert

Contact : metmap@orbifly.com




SOURCES & CREDITS :

   NOAA